createdAt,value
2018-10-06T00:01:38.879Z,3.33
2018-10-06T00:04:07.211Z,3.27
2018-10-06T00:06:35.287Z,3.53
2018-10-06T00:09:04.023Z,3.57
2018-10-06T00:11:32.792Z,3.50
2018-10-06T00:14:01.165Z,3.13
2018-10-06T00:16:29.408Z,3.07
2018-10-06T00:18:57.554Z,3.13
2018-10-06T00:21:26.249Z,3.30
2018-10-06T00:23:54.631Z,3.10
2018-10-06T00:26:23.225Z,3.13
2018-10-06T00:28:51.607Z,3.23
2018-10-06T00:31:20.127Z,3.80
2018-10-06T00:33:48.620Z,3.40
2018-10-06T00:36:17.120Z,3.30
2018-10-06T00:38:45.211Z,3.50
2018-10-06T00:41:13.806Z,3.00
2018-10-06T00:43:41.855Z,3.33
2018-10-06T00:46:10.227Z,3.47
2018-10-06T00:48:38.475Z,3.57
2018-10-06T00:51:06.993Z,3.13
2018-10-06T00:53:35.563Z,3.27
2018-10-06T00:56:03.963Z,3.27
2018-10-06T00:58:32.441Z,3.50
2018-10-06T01:01:01.046Z,4.05
2018-10-06T01:03:29.270Z,3.40
2018-10-06T01:05:57.664Z,3.40
2018-10-06T01:08:26.063Z,3.93
2018-10-06T01:10:54.421Z,3.57
2018-10-06T01:13:22.895Z,3.63
2018-10-06T01:15:51.002Z,3.40
2018-10-06T01:18:19.903Z,3.77
2018-10-06T01:20:48.522Z,3.77
2018-10-06T01:23:16.666Z,3.20
2018-10-06T01:25:44.972Z,3.87
2018-10-06T01:28:14.163Z,3.30
2018-10-06T01:30:42.684Z,3.53
2018-10-06T01:33:11.630Z,3.40
2018-10-06T01:35:39.700Z,3.50
2018-10-06T01:38:07.799Z,3.47
2018-10-06T01:40:35.942Z,3.40
2018-10-06T01:43:04.109Z,3.80
2018-10-06T01:45:32.176Z,3.83
2018-10-06T01:48:00.254Z,3.17
2018-10-06T01:50:28.509Z,3.40
2018-10-06T01:52:56.619Z,3.27
2018-10-06T01:55:24.700Z,3.17
2018-10-06T01:57:52.771Z,3.13
2018-10-06T02:00:20.826Z,3.27
2018-10-06T02:02:48.995Z,3.17
2018-10-06T02:05:17.074Z,3.23
2018-10-06T02:07:45.146Z,3.60
2018-10-06T02:10:13.219Z,3.10
2018-10-06T02:12:41.302Z,2.87
2018-10-06T02:15:09.383Z,3.77
2018-10-06T02:17:37.484Z,3.00
2018-10-06T02:20:05.550Z,3.17
2018-10-06T02:22:33.611Z,3.30
2018-10-06T02:25:01.672Z,2.60
2018-10-06T02:27:29.736Z,3.63
2018-10-06T02:29:57.836Z,3.50
2018-10-06T02:32:25.881Z,3.67
2018-10-06T02:34:53.955Z,3.30
2018-10-06T02:37:22.340Z,3.60
2018-10-06T02:39:50.656Z,3.57
2018-10-06T02:42:18.734Z,3.53
2018-10-06T02:44:46.803Z,3.90
2018-10-06T02:47:14.930Z,3.80
2018-10-06T02:49:42.998Z,3.97
2018-10-06T02:52:11.074Z,3.50
2018-10-06T02:54:39.143Z,3.70
2018-10-06T02:57:07.411Z,4.10
2018-10-06T02:59:35.490Z,4.10
2018-10-06T03:02:03.579Z,4.00
2018-10-06T03:04:31.638Z,5.17
2018-10-06T03:06:59.814Z,3.87
2018-10-06T03:09:27.882Z,3.87
2018-10-06T03:11:55.950Z,3.80
2018-10-06T03:14:24.010Z,3.20
2018-10-06T03:16:52.418Z,4.40
2018-10-06T03:19:20.506Z,4.13
2018-10-06T03:21:48.571Z,3.93
2018-10-06T03:24:16.634Z,4.00
2018-10-06T03:26:44.703Z,3.80
2018-10-06T03:29:12.928Z,3.87
2018-10-06T03:31:40.978Z,3.67
2018-10-06T03:34:09.161Z,3.63
2018-10-06T03:36:37.243Z,3.80
2018-10-06T03:39:06.054Z,3.53
2018-10-06T03:41:34.535Z,3.90
2018-10-06T03:44:02.601Z,4.33
2018-10-06T03:46:30.675Z,4.07
2018-10-06T03:49:00.186Z,4.30
2018-10-06T03:51:28.641Z,4.77
2018-10-06T03:53:56.996Z,4.03
2018-10-06T03:56:25.468Z,4.63
2018-10-06T03:58:53.757Z,4.57
2018-10-06T04:01:21.815Z,4.77
2018-10-06T04:03:50.783Z,5.10
2018-10-06T04:06:18.917Z,5.20
2018-10-06T04:08:47.632Z,4.93
2018-10-06T04:11:15.961Z,4.07
2018-10-06T04:13:44.411Z,4.00
2018-10-06T04:16:12.495Z,4.33
2018-10-06T04:18:40.358Z,4.03
2018-10-06T04:21:08.458Z,4.00
2018-10-06T04:23:36.523Z,3.97
2018-10-06T04:26:04.647Z,3.93
2018-10-06T04:28:32.727Z,4.60
2018-10-06T04:31:00.802Z,4.80
2018-10-06T04:33:28.889Z,4.63
2018-10-06T04:35:56.957Z,4.97
2018-10-06T04:38:25.038Z,4.57
2018-10-06T04:40:53.099Z,4.73
2018-10-06T04:43:21.171Z,5.30
2018-10-06T04:45:49.233Z,5.27
2018-10-06T04:48:17.298Z,4.83
2018-10-06T04:50:45.411Z,4.43
2018-10-06T04:53:13.491Z,4.30
2018-10-06T04:55:41.554Z,4.80
2018-10-06T04:58:09.676Z,4.37
2018-10-06T05:00:37.754Z,4.27
2018-10-06T05:03:05.987Z,4.80
2018-10-06T05:05:34.082Z,4.73
2018-10-06T05:08:02.151Z,5.23
2018-10-06T05:10:30.243Z,4.60
2018-10-06T05:12:58.329Z,4.93
2018-10-06T05:15:26.410Z,4.30
2018-10-06T05:17:55.122Z,4.47
2018-10-06T05:20:23.175Z,5.20
2018-10-06T05:22:51.238Z,4.67
2018-10-06T05:25:19.677Z,4.27
2018-10-06T05:27:48.115Z,4.70
2018-10-06T05:30:16.540Z,4.77
2018-10-06T05:32:45.066Z,5.13
2018-10-06T05:35:13.115Z,5.13
2018-10-06T05:37:41.226Z,5.40
2018-10-06T05:40:09.636Z,5.40
2018-10-06T05:42:37.909Z,6.17
2018-10-06T05:45:06.055Z,7.03
2018-10-06T05:47:34.399Z,6.97
2018-10-06T05:50:02.506Z,6.53
2018-10-06T05:52:30.642Z,6.63
2018-10-06T05:54:58.749Z,6.33
2018-10-06T05:57:26.960Z,7.13
2018-10-06T05:59:55.042Z,6.70
2018-10-06T06:02:23.234Z,6.53
2018-10-06T06:04:51.377Z,5.80
2018-10-06T06:07:19.539Z,4.70
2018-10-06T06:09:47.692Z,5.10
2018-10-06T06:12:15.758Z,4.77
2018-10-06T06:14:43.848Z,4.80
2018-10-06T06:17:11.922Z,5.80
2018-10-06T06:19:40.143Z,6.43
2018-10-06T06:22:08.298Z,5.87
2018-10-06T06:24:36.343Z,5.07
2018-10-06T06:27:04.412Z,5.80
2018-10-06T06:29:32.490Z,6.63
2018-10-06T06:32:00.555Z,6.40
2018-10-06T06:34:28.637Z,6.80
2018-10-06T06:36:56.726Z,6.23
2018-10-06T06:39:24.951Z,6.80
2018-10-06T06:41:53.013Z,7.63
2018-10-06T06:44:21.211Z,7.00
2018-10-06T06:46:49.198Z,7.87
2018-10-06T06:49:17.293Z,10.97
2018-10-06T06:51:45.377Z,9.50
2018-10-06T06:54:13.462Z,9.23
2018-10-06T06:56:41.540Z,9.97
2018-10-06T06:59:09.641Z,12.23
2018-10-06T07:01:37.734Z,11.50
2018-10-06T07:04:05.934Z,11.50
2018-10-06T07:06:34.071Z,12.17
2018-10-06T07:09:02.165Z,11.10
2018-10-06T07:11:30.544Z,11.63
2018-10-06T07:13:58.652Z,12.37
2018-10-06T07:16:26.743Z,11.60
2018-10-06T07:18:54.898Z,11.47
2018-10-06T07:21:23.000Z,13.03
2018-10-06T07:23:51.082Z,11.50
2018-10-06T07:26:19.178Z,12.50
2018-10-06T07:28:47.300Z,11.93
2018-10-06T07:31:15.395Z,11.77
2018-10-06T07:33:43.475Z,12.07
2018-10-06T07:36:11.565Z,12.90
2018-10-06T07:38:39.641Z,11.67
2018-10-06T07:41:07.730Z,11.43
2018-10-06T07:43:36.618Z,11.50
2018-10-06T07:46:04.809Z,11.60
2018-10-06T07:48:32.899Z,12.17
2018-10-06T07:51:00.977Z,13.67
2018-10-06T07:53:29.280Z,12.23
2018-10-06T07:55:57.699Z,12.73
2018-10-06T07:58:26.963Z,12.67
2018-10-06T08:00:55.683Z,12.20
2018-10-06T08:03:23.766Z,12.70
2018-10-06T08:05:52.835Z,10.90
2018-10-06T08:08:21.711Z,11.87
2018-10-06T08:10:49.853Z,11.60
2018-10-06T08:13:18.095Z,12.47
2018-10-06T08:15:46.207Z,12.07
2018-10-06T08:18:14.312Z,11.90
2018-10-06T08:20:42.399Z,11.17
2018-10-06T08:23:10.909Z,11.73
2018-10-06T08:25:39.057Z,10.87
2018-10-06T08:28:07.140Z,11.07
2018-10-06T08:30:35.314Z,12.47
2018-10-06T08:33:03.409Z,11.30
2018-10-06T08:35:31.498Z,11.90
2018-10-06T08:37:59.746Z,10.93
2018-10-06T08:40:38.958Z,10.93
2018-10-06T08:43:07.251Z,10.50
2018-10-06T08:45:35.389Z,11.30
2018-10-06T08:48:03.487Z,10.20
2018-10-06T08:50:31.622Z,10.80
2018-10-06T08:52:59.886Z,10.30
2018-10-06T08:55:27.991Z,11.47
2018-10-06T08:57:56.072Z,10.87
2018-10-06T09:00:24.174Z,10.90
2018-10-06T09:02:52.307Z,11.73
2018-10-06T09:05:20.376Z,11.27
2018-10-06T09:07:48.502Z,10.00
2018-10-06T09:10:16.598Z,10.10
2018-10-06T09:12:44.679Z,10.53
2018-10-06T09:15:12.774Z,9.80
2018-10-06T09:17:41.075Z,10.10
2018-10-06T09:20:09.259Z,9.33
2018-10-06T09:22:38.470Z,11.37
2018-10-06T09:25:06.943Z,9.47
2018-10-06T09:27:35.056Z,10.37
2018-10-06T09:30:03.127Z,9.77
2018-10-06T09:32:31.199Z,10.23
2018-10-06T09:34:59.283Z,10.17
2018-10-06T09:37:27.415Z,9.97
2018-10-06T09:39:55.840Z,10.17
2018-10-06T09:42:24.174Z,9.50
2018-10-06T09:44:52.184Z,9.60
2018-10-06T09:47:20.273Z,10.20
2018-10-06T09:49:48.580Z,8.33
2018-10-06T09:52:16.775Z,9.07
2018-10-06T09:54:45.515Z,9.23
2018-10-06T09:57:13.875Z,9.30
2018-10-06T09:59:42.002Z,8.70
2018-10-06T10:02:15.734Z,9.30
2018-10-06T10:04:43.815Z,9.87
2018-10-06T10:07:11.896Z,9.10
2018-10-06T10:09:40.080Z,9.30
2018-10-06T10:12:08.191Z,11.95
2018-10-06T10:14:36.260Z,8.80
2018-10-06T10:17:04.480Z,9.43
2018-10-06T10:19:32.567Z,9.37
2018-10-06T10:22:00.809Z,8.97
2018-10-06T10:24:28.894Z,9.10
2018-10-06T10:26:56.968Z,8.57
2018-10-06T10:29:25.072Z,8.27
2018-10-06T10:31:53.160Z,9.90
2018-10-06T10:34:21.423Z,8.80
2018-10-06T10:36:49.523Z,9.10
2018-10-06T10:39:17.680Z,9.00
2018-10-06T10:41:45.715Z,8.45
2018-10-06T10:44:13.939Z,8.53
2018-10-06T10:46:41.971Z,8.53
2018-10-06T10:49:10.090Z,7.75
2018-10-06T10:51:38.376Z,9.30
2018-10-06T10:54:06.443Z,8.48
2018-10-06T10:58:04.012Z,8.30
2018-10-06T11:00:32.178Z,7.83
2018-10-06T11:03:00.208Z,8.73
2018-10-06T11:05:28.280Z,8.10
2018-10-06T11:07:56.368Z,7.92
2018-10-06T11:10:24.478Z,8.70
2018-10-06T11:12:52.591Z,8.70
2018-10-06T11:15:20.677Z,7.60
2018-10-06T11:17:48.786Z,8.55
2018-10-06T11:20:17.237Z,8.48
2018-10-06T11:22:45.460Z,9.23
2018-10-06T11:25:13.547Z,11.12
2018-10-06T11:27:47.169Z,9.13
2018-10-06T11:30:15.308Z,8.85
2018-10-06T11:32:43.396Z,8.70
2018-10-06T11:35:11.479Z,8.38
2018-10-06T11:37:39.826Z,9.70
2018-10-06T11:40:07.673Z,8.93
2018-10-06T11:42:35.803Z,8.73
2018-10-06T11:45:03.939Z,9.58
2018-10-06T11:47:32.039Z,9.15
2018-10-06T11:50:00.358Z,9.50
2018-10-06T11:52:28.371Z,9.68
2018-10-06T11:54:56.529Z,10.00
2018-10-06T11:57:24.647Z,9.98
2018-10-06T11:59:52.763Z,10.72
2018-10-06T12:02:20.839Z,10.45
2018-10-06T12:04:48.921Z,10.50
2018-10-06T12:07:17.103Z,9.45
2018-10-06T12:09:45.197Z,10.18
2018-10-06T12:12:13.315Z,10.30
2018-10-06T12:14:41.416Z,9.80
2018-10-06T12:17:09.608Z,10.55
2018-10-06T12:19:37.707Z,9.98
2018-10-06T12:22:06.979Z,10.43
2018-10-06T12:24:35.062Z,10.43
2018-10-06T12:27:03.139Z,9.60
2018-10-06T12:29:31.268Z,10.97
2018-10-06T12:31:59.479Z,11.68
2018-10-06T12:34:27.562Z,11.15
2018-10-06T12:36:55.724Z,11.80
2018-10-06T12:39:23.821Z,10.68
2018-10-06T12:41:52.003Z,11.60
2018-10-06T12:44:20.132Z,11.20
2018-10-06T12:46:48.250Z,11.50
2018-10-06T12:49:16.394Z,11.48
2018-10-06T12:51:44.589Z,10.75
2018-10-06T12:54:12.801Z,10.65
2018-10-06T12:56:40.907Z,9.68
2018-10-06T12:59:09.061Z,10.15
2018-10-06T13:01:37.147Z,11.10
2018-10-06T13:04:05.267Z,11.15
2018-10-06T13:06:33.360Z,11.43
2018-10-06T13:09:01.467Z,10.58
2018-10-06T13:11:29.572Z,10.03
2018-10-06T13:13:57.689Z,10.65
2018-10-06T13:16:25.833Z,12.80
2018-10-06T13:18:53.915Z,10.80
2018-10-06T13:21:22.016Z,11.00
2018-10-06T13:23:50.119Z,10.82
2018-10-06T13:26:18.205Z,11.08
2018-10-06T13:28:46.338Z,10.38
2018-10-06T13:31:14.447Z,13.68
2018-10-06T13:33:42.527Z,10.30
2018-10-06T13:36:10.680Z,10.18
2018-10-06T13:38:38.783Z,10.58
2018-10-06T13:41:07.153Z,10.43
2018-10-06T13:43:35.511Z,9.88
2018-10-06T13:46:03.623Z,10.10
2018-10-06T13:48:31.806Z,10.82
2018-10-06T13:50:59.954Z,9.65
2018-10-06T13:53:28.755Z,11.03
2018-10-06T13:55:57.023Z,10.13
2018-10-06T13:58:25.225Z,9.35
2018-10-06T14:00:53.331Z,10.18
2018-10-06T14:03:21.531Z,9.80
2018-10-06T14:05:49.633Z,7.72
2018-10-06T14:08:17.745Z,7.72
2018-10-06T14:10:45.837Z,9.25
2018-10-06T14:13:13.923Z,8.48
2018-10-06T14:15:42.042Z,8.20
2018-10-06T14:18:10.398Z,8.75
2018-10-06T14:20:38.533Z,8.45
2018-10-06T14:23:06.634Z,8.65
2018-10-06T14:25:34.707Z,9.03
2018-10-06T14:28:02.836Z,8.15
2018-10-06T14:30:30.949Z,8.13
2018-10-06T14:32:59.243Z,8.25
2018-10-06T14:35:27.575Z,8.45
2018-10-06T14:37:55.672Z,8.98
2018-10-06T14:40:24.101Z,8.45
2018-10-06T14:42:52.204Z,7.97
2018-10-06T14:45:20.287Z,8.45
2018-10-06T14:47:48.371Z,8.45
2018-10-06T14:50:16.543Z,9.03
2018-10-06T14:52:44.608Z,9.10
2018-10-06T14:55:12.679Z,9.70
2018-10-06T14:57:40.766Z,9.15
2018-10-06T15:00:09.183Z,9.03
2018-10-06T15:02:37.308Z,9.08
2018-10-06T15:05:05.431Z,8.70
2018-10-06T15:07:33.569Z,8.88
2018-10-06T15:10:01.691Z,9.50
2018-10-06T15:12:29.765Z,9.53
2018-10-06T15:14:58.177Z,9.70
2018-10-06T15:17:26.252Z,10.15
2018-10-06T15:20:06.116Z,10.82
2018-10-06T15:22:34.222Z,10.95
2018-10-06T15:25:02.336Z,12.28
2018-10-06T15:27:30.411Z,11.20
2018-10-06T15:29:58.877Z,11.93
2018-10-06T15:32:27.070Z,12.50
2018-10-06T15:34:55.831Z,11.10
2018-10-06T15:37:23.911Z,11.97
2018-10-06T15:39:52.002Z,12.33
2018-10-06T15:42:20.103Z,11.93
2018-10-06T15:44:50.875Z,11.85
2018-10-06T15:47:18.977Z,10.45
2018-10-06T15:49:47.208Z,10.45
2018-10-06T15:52:17.364Z,9.70
2018-10-06T15:54:46.137Z,9.70
2018-10-06T15:57:14.237Z,9.38
2018-10-06T15:59:42.339Z,8.25
2018-10-06T16:02:10.450Z,8.63
2018-10-06T16:04:38.661Z,8.28
2018-10-06T16:07:07.233Z,7.45
2018-10-06T16:09:35.310Z,6.83
2018-10-06T16:12:05.239Z,9.03
2018-10-06T16:14:33.954Z,8.53
2018-10-06T16:17:02.887Z,7.08
2018-10-06T16:19:31.135Z,6.40
2018-10-06T16:21:59.281Z,7.33
2018-10-06T16:24:27.417Z,7.45
2018-10-06T16:26:55.523Z,7.28
2018-10-06T16:29:23.607Z,6.37
2018-10-06T16:31:51.735Z,6.47
2018-10-06T16:34:19.801Z,5.80
2018-10-06T16:36:47.875Z,6.10
2018-10-06T16:39:15.936Z,5.87
2018-10-06T16:41:44.025Z,6.05
2018-10-06T16:44:12.098Z,5.67
2018-10-06T16:46:40.225Z,5.28
2018-10-06T16:49:08.400Z,6.08
2018-10-06T16:51:36.493Z,5.60
2018-10-06T16:54:04.879Z,5.45
2018-10-06T16:56:32.985Z,5.20
2018-10-06T16:59:01.087Z,6.17
2018-10-06T17:01:29.180Z,5.20
2018-10-06T17:03:57.283Z,7.62
2018-10-06T17:06:25.415Z,7.05
2018-10-06T17:08:53.451Z,6.37
2018-10-06T17:11:21.566Z,5.67
2018-10-06T17:13:49.652Z,6.58
2018-10-06T17:16:17.785Z,6.67
2018-10-06T17:18:45.969Z,7.92
2018-10-06T17:21:14.148Z,9.28
2018-10-06T17:23:42.275Z,8.15
2018-10-06T17:26:10.347Z,9.58
2018-10-06T17:28:40.463Z,9.13
2018-10-06T17:31:08.646Z,9.08
2018-10-06T17:33:36.693Z,11.48
2018-10-06T17:36:04.946Z,10.43
2018-10-06T17:38:33.287Z,10.60
2018-10-06T17:41:01.379Z,10.50
2018-10-06T17:43:30.531Z,10.90
2018-10-06T17:45:58.772Z,10.63
2018-10-06T17:48:26.953Z,10.93
2018-10-06T17:50:55.343Z,11.75
2018-10-06T17:53:23.435Z,13.22
2018-10-06T17:55:51.550Z,12.90
2018-10-06T17:58:19.726Z,15.95
2018-10-06T18:00:47.827Z,11.97
2018-10-06T18:03:15.944Z,12.90
2018-10-06T18:05:44.010Z,14.60
2018-10-06T18:08:12.087Z,13.03
2018-10-06T18:10:40.195Z,14.17
2018-10-06T18:13:08.290Z,15.27
2018-10-06T18:15:36.357Z,15.53
2018-10-06T18:18:04.530Z,16.10
2018-10-06T18:20:32.836Z,14.03
2018-10-06T18:23:00.770Z,16.03
2018-10-06T18:25:28.867Z,16.27
2018-10-06T18:27:57.042Z,16.73
2018-10-06T18:30:25.188Z,17.00
2018-10-06T18:32:53.504Z,16.73
2018-10-06T18:35:21.620Z,18.90
2018-10-06T18:37:49.750Z,20.20
2018-10-06T18:40:17.859Z,17.50
2018-10-06T18:42:45.935Z,18.53
2018-10-06T18:45:14.020Z,18.27
2018-10-06T18:47:57.937Z,20.13
2018-10-06T18:50:26.106Z,26.17
2018-10-06T18:52:54.222Z,19.43
2018-10-06T18:55:22.299Z,19.57
2018-10-06T18:57:50.444Z,21.17
2018-10-06T19:00:18.604Z,20.60
2018-10-06T19:02:47.727Z,21.47
2018-10-06T19:05:15.809Z,22.27
2018-10-06T19:07:44.139Z,23.43
2018-10-06T19:10:12.282Z,23.40
2018-10-06T19:12:41.331Z,24.00
2018-10-06T19:15:09.489Z,24.67
2018-10-06T19:17:37.563Z,23.40
2018-10-06T19:20:06.602Z,23.40
2018-10-06T19:22:34.703Z,23.53
2018-10-06T19:25:02.767Z,25.07
2018-10-06T19:27:32.067Z,27.20
2018-10-06T19:30:00.235Z,28.10
2018-10-06T19:32:28.309Z,28.67
2018-10-06T19:34:56.445Z,30.97
2018-10-06T19:37:24.535Z,33.27
2018-10-06T19:39:52.862Z,42.58
2018-10-06T19:42:20.970Z,34.80
2018-10-06T19:44:49.268Z,41.73
2018-10-06T19:47:17.360Z,34.67
2018-10-06T19:49:45.459Z,33.03
2018-10-06T19:52:13.638Z,35.20
2018-10-06T19:54:41.711Z,34.20
2018-10-06T19:57:09.778Z,34.33
2018-10-06T19:59:41.715Z,34.47
2018-10-06T20:02:10.164Z,37.00
2018-10-06T20:04:38.281Z,36.00
2018-10-06T20:07:10.910Z,33.33
2018-10-06T20:09:39.090Z,34.63
2018-10-06T20:12:07.277Z,33.50
2018-10-06T20:14:35.663Z,34.17
2018-10-06T20:17:03.790Z,35.27
2018-10-06T20:19:32.530Z,34.67
2018-10-06T20:22:01.787Z,33.00
2018-10-06T20:24:29.882Z,34.13
2018-10-06T20:26:58.004Z,33.57
2018-10-06T20:29:26.707Z,34.53
2018-10-06T20:31:54.802Z,33.47
2018-10-06T20:34:22.894Z,33.63
2018-10-06T20:36:51.027Z,30.77
2018-10-06T20:39:19.156Z,32.83
2018-10-06T20:41:47.359Z,30.67
2018-10-06T20:44:15.483Z,31.17
2018-10-06T20:46:43.579Z,28.60
2018-10-06T20:49:11.659Z,26.73
2018-10-06T20:51:39.730Z,25.50
2018-10-06T20:54:07.824Z,24.30
2018-10-06T20:56:36.559Z,21.63
2018-10-06T20:59:04.842Z,20.77
2018-10-06T21:01:47.280Z,19.63
2018-10-06T21:04:15.334Z,19.23
2018-10-06T21:06:43.407Z,18.10
2018-10-06T21:09:12.580Z,17.57
2018-10-06T21:11:41.134Z,17.47
2018-10-06T21:14:09.241Z,19.87
2018-10-06T21:16:38.124Z,15.67
2018-10-06T21:19:07.095Z,14.67
2018-10-06T21:21:35.191Z,14.50
2018-10-06T21:24:03.263Z,14.57
2018-10-06T21:26:31.345Z,14.57
2018-10-06T21:28:59.449Z,13.47
2018-10-06T21:31:29.641Z,15.07
2018-10-06T21:33:57.641Z,14.43
2018-10-06T21:36:26.266Z,14.27
2018-10-06T21:38:54.412Z,18.65
2018-10-06T21:41:22.414Z,15.93
2018-10-06T21:43:50.617Z,14.53
2018-10-06T21:46:18.959Z,14.40
2018-10-06T21:48:47.360Z,15.03
2018-10-06T21:51:15.479Z,14.77
2018-10-06T21:53:43.556Z,13.90
2018-10-06T21:56:11.647Z,14.37
2018-10-06T21:58:39.779Z,14.17
2018-10-06T22:01:11.167Z,14.03
2018-10-06T22:03:39.919Z,13.40
2018-10-06T22:06:08.136Z,13.03
2018-10-06T22:08:36.442Z,11.73
2018-10-06T22:11:04.684Z,9.77
2018-10-06T22:13:32.773Z,8.93
2018-10-06T22:16:00.863Z,9.07
2018-10-06T22:18:28.965Z,8.23
2018-10-06T22:20:57.090Z,7.50
2018-10-06T22:23:25.477Z,6.77
2018-10-06T22:25:53.570Z,7.33
2018-10-06T22:28:21.650Z,6.13
2018-10-06T22:30:49.730Z,6.73
2018-10-06T22:33:17.927Z,6.30
2018-10-06T22:35:48.094Z,7.30
2018-10-06T22:40:49.386Z,6.53
2018-10-06T22:43:27.546Z,5.83
2018-10-06T22:46:00.698Z,5.63
2018-10-06T22:48:36.100Z,5.07
2018-10-06T22:51:42.620Z,5.27
2018-10-06T22:54:18.769Z,4.57
2018-10-06T22:56:53.467Z,4.60
2018-10-06T23:00:14.839Z,4.50
2018-10-06T23:02:55.909Z,4.03
2018-10-06T23:05:24.733Z,3.73
2018-10-06T23:07:57.104Z,3.70
2018-10-06T23:10:25.176Z,3.33
2018-10-06T23:13:16.868Z,3.30
2018-10-06T23:15:48.515Z,2.93
2018-10-06T23:18:21.388Z,3.03
2018-10-06T23:20:56.141Z,2.60
2018-10-06T23:23:28.174Z,2.00
2018-10-06T23:25:56.980Z,2.27
2018-10-06T23:28:32.054Z,2.27
2018-10-06T23:31:02.374Z,2.20
2018-10-06T23:33:34.509Z,1.90
2018-10-06T23:36:06.842Z,1.63
2018-10-06T23:38:42.330Z,1.30
2018-10-06T23:41:16.968Z,1.47
2018-10-06T23:43:49.991Z,1.37
2018-10-06T23:46:19.561Z,2.07
2018-10-06T23:48:47.627Z,1.20
2018-10-06T23:51:15.712Z,1.60
2018-10-06T23:53:43.791Z,1.20
2018-10-06T23:56:13.883Z,1.43
2018-10-06T23:58:41.953Z,1.50
